Terminal Aerodrome Forecast
Issued by NWS Bismarck, ND

Home | Current Version | Previous Version | Text Only | Print | Product List | Glossary On
Versions: 1 2 3 4 5 6 7 8 9 10 11 12 13 14 15 16 17 18 19 20 21 22 23 24 25 26 27 28 29 30 31 32 33 34 35 36 37 38 39 40 41 42 43 44 45 46 47 48 49 50
054
FTUS43 KBIS 180528
TAFISN
TAF
KISN 180528Z 1806/1906 07008KT 2SM -SN OVC029
     FM181200 05008KT 1 1/2SM -SN BKN017
     FM181600 06008KT 4SM -SN BKN020
     FM182100 09007KT P6SM BKN026
     FM182300 09006KT P6SM BKN035=

USA.gov is the U.S. government's official web portal to all federal, state and local government web resources and services.